createdAt,value
2018-10-06T00:00:47.102Z,9.60
2018-10-06T00:03:17.228Z,9.60
2018-10-06T00:05:47.236Z,9.60
2018-10-06T00:08:17.252Z,9.60
2018-10-06T00:10:47.171Z,9.60
2018-10-06T00:13:17.216Z,9.50
2018-10-06T00:15:47.191Z,9.50
2018-10-06T00:18:17.457Z,9.50
2018-10-06T00:20:47.462Z,9.50
2018-10-06T00:23:17.461Z,9.40
2018-10-06T00:25:47.642Z,9.50
2018-10-06T00:28:17.806Z,9.40
2018-10-06T00:30:47.970Z,9.40
2018-10-06T00:33:18.090Z,9.30
2018-10-06T00:35:48.140Z,9.30
2018-10-06T00:38:18.251Z,9.30
2018-10-06T00:40:48.438Z,9.20
2018-10-06T00:43:18.663Z,9.20
2018-10-06T00:45:48.825Z,9.20
2018-10-06T00:48:18.950Z,9.10
2018-10-06T00:50:49.414Z,9.10
2018-10-06T00:53:19.447Z,9.10
2018-10-06T00:55:49.451Z,9.10
2018-10-06T00:58:19.499Z,9.10
2018-10-06T01:00:49.536Z,9.00
2018-10-06T01:03:19.590Z,9.00
2018-10-06T01:05:49.679Z,9.00
2018-10-06T01:08:19.668Z,9.00
2018-10-06T01:10:49.687Z,9.00
2018-10-06T01:13:19.699Z,9.00
2018-10-06T01:15:49.755Z,9.10
2018-10-06T01:18:19.769Z,9.00
2018-10-06T01:20:49.971Z,9.00
2018-10-06T01:23:19.957Z,9.10
2018-10-06T01:25:50.021Z,9.10
2018-10-06T01:28:20.000Z,9.00
2018-10-06T01:30:50.032Z,9.00
2018-10-06T01:33:20.111Z,9.00
2018-10-06T01:35:50.307Z,9.00
2018-10-06T01:38:20.408Z,9.00
2018-10-06T01:40:50.671Z,9.00
2018-10-06T01:43:20.737Z,9.00
2018-10-06T01:45:50.824Z,9.10
2018-10-06T01:48:20.841Z,9.10
2018-10-06T01:50:51.080Z,9.10
2018-10-06T01:53:21.301Z,9.10
2018-10-06T01:55:51.515Z,9.10
2018-10-06T01:58:21.686Z,9.00
2018-10-06T02:00:51.667Z,9.00
2018-10-06T02:03:21.772Z,9.00
2018-10-06T02:05:51.751Z,8.90
2018-10-06T02:08:22.011Z,8.90
2018-10-06T02:10:51.998Z,8.80
2018-10-06T02:13:22.130Z,8.80
2018-10-06T02:15:52.160Z,8.80
2018-10-06T02:18:22.229Z,8.80
2018-10-06T02:20:53.292Z,8.70
2018-10-06T02:23:23.378Z,8.80
2018-10-06T02:25:53.378Z,8.70
2018-10-06T02:28:23.501Z,8.80
2018-10-06T02:30:53.617Z,8.70
2018-10-06T02:33:24.319Z,8.80
2018-10-06T02:35:54.311Z,8.80
2018-10-06T02:38:24.731Z,8.70
2018-10-06T02:40:54.997Z,8.80
2018-10-06T02:43:24.928Z,8.80
2018-10-06T02:45:55.019Z,8.80
2018-10-06T02:48:25.034Z,8.80
2018-10-06T02:50:55.170Z,8.90
2018-10-06T02:53:25.232Z,8.80
2018-10-06T02:55:55.184Z,8.80
2018-10-06T02:58:25.338Z,8.90
2018-10-06T03:00:55.416Z,8.90
2018-10-06T03:03:25.462Z,8.80
2018-10-06T03:05:55.538Z,8.90
2018-10-06T03:08:25.575Z,8.80
2018-10-06T03:10:55.614Z,8.80
2018-10-06T03:13:25.701Z,8.80
2018-10-06T03:15:55.929Z,8.80
2018-10-06T03:18:25.906Z,8.70
2018-10-06T03:20:56.004Z,8.70
2018-10-06T03:23:26.112Z,8.70
2018-10-06T03:25:56.192Z,8.70
2018-10-06T03:28:26.278Z,8.80
2018-10-06T03:30:56.276Z,8.70
2018-10-06T03:33:26.339Z,8.80
2018-10-06T03:35:56.575Z,8.80
2018-10-06T03:38:26.720Z,8.80
2018-10-06T03:40:56.886Z,8.80
2018-10-06T03:43:27.069Z,8.80
2018-10-06T03:45:57.232Z,8.80
2018-10-06T03:48:27.294Z,8.80
2018-10-06T03:50:57.794Z,8.80
2018-10-06T03:53:27.834Z,8.80
2018-10-06T03:55:57.953Z,8.80
2018-10-06T03:58:28.108Z,8.80
2018-10-06T04:00:59.010Z,8.80
2018-10-06T04:03:29.178Z,8.80
2018-10-06T04:05:59.368Z,8.70
2018-10-06T04:08:29.376Z,8.70
2018-10-06T04:10:59.594Z,8.80
2018-10-06T04:13:29.832Z,8.70
2018-10-06T04:15:59.863Z,8.80
2018-10-06T04:18:30.024Z,8.70
2018-10-06T04:21:00.647Z,8.70
2018-10-06T04:23:30.740Z,8.70
2018-10-06T04:26:00.814Z,8.60
2018-10-06T04:28:30.911Z,8.60
2018-10-06T04:31:01.037Z,8.60
2018-10-06T04:33:31.197Z,8.50
2018-10-06T04:36:01.260Z,8.50
2018-10-06T04:38:31.378Z,8.50
2018-10-06T04:41:01.534Z,8.50
2018-10-06T04:43:31.597Z,8.50
2018-10-06T04:46:01.665Z,8.60
2018-10-06T04:48:31.731Z,8.50
2018-10-06T04:51:02.035Z,8.50
2018-10-06T04:53:32.014Z,8.50
2018-10-06T04:56:02.160Z,8.50
2018-10-06T04:58:32.287Z,8.50
2018-10-06T05:01:02.297Z,8.50
2018-10-06T05:03:32.471Z,8.50
2018-10-06T05:06:02.599Z,8.60
2018-10-06T05:08:32.705Z,8.60
2018-10-06T05:11:02.815Z,8.60
2018-10-06T05:13:32.967Z,8.60
2018-10-06T05:16:03.149Z,8.60
2018-10-06T05:18:33.284Z,8.60
2018-10-06T05:21:03.403Z,8.60
2018-10-06T05:23:33.447Z,8.70
2018-10-06T05:26:03.571Z,8.70
2018-10-06T05:28:33.593Z,8.70
2018-10-06T05:31:03.825Z,8.70
2018-10-06T05:33:33.835Z,8.70
2018-10-06T05:36:04.171Z,8.70
2018-10-06T05:38:34.489Z,8.70
2018-10-06T05:41:04.842Z,8.70
2018-10-06T05:43:34.893Z,8.80
2018-10-06T05:46:04.904Z,8.70
2018-10-06T05:48:34.927Z,8.70
2018-10-06T05:51:04.920Z,8.70
2018-10-06T05:53:35.085Z,8.70
2018-10-06T05:56:05.073Z,8.80
2018-10-06T05:58:35.151Z,8.70
2018-10-06T06:01:06.063Z,8.70
2018-10-06T06:03:36.123Z,8.70
2018-10-06T06:06:06.184Z,8.70
2018-10-06T06:08:36.458Z,8.70
2018-10-06T06:11:07.339Z,8.70
2018-10-06T06:13:37.305Z,8.70
2018-10-06T06:16:07.334Z,8.70
2018-10-06T06:18:37.513Z,8.80
2018-10-06T06:21:07.592Z,8.80
2018-10-06T06:23:37.758Z,8.80
2018-10-06T06:26:07.934Z,8.80
2018-10-06T06:28:37.972Z,8.90
2018-10-06T06:31:08.683Z,8.90
2018-10-06T06:33:38.806Z,8.90
2018-10-06T06:36:09.048Z,9.00
2018-10-06T06:38:39.072Z,9.00
2018-10-06T06:41:09.184Z,9.10
2018-10-06T06:43:39.423Z,9.10
2018-10-06T06:46:09.604Z,9.10
2018-10-06T06:48:40.301Z,9.20
2018-10-06T06:51:11.422Z,9.20
2018-10-06T06:53:41.688Z,9.30
2018-10-06T06:56:11.724Z,9.40
2018-10-06T06:58:41.754Z,9.40
2018-10-06T07:01:11.780Z,9.50
2018-10-06T07:03:41.858Z,9.60
2018-10-06T07:06:12.238Z,9.60
2018-10-06T07:08:42.655Z,9.70
2018-10-06T07:11:12.836Z,9.80
2018-10-06T07:13:42.954Z,9.90
2018-10-06T07:16:12.975Z,10.00
2018-10-06T07:18:43.318Z,10.00
2018-10-06T07:21:13.391Z,10.10
2018-10-06T07:23:43.502Z,10.20
2018-10-06T07:26:13.669Z,10.30
2018-10-06T07:28:43.723Z,10.30
2018-10-06T07:31:14.323Z,10.40
2018-10-06T07:33:44.590Z,10.40
2018-10-06T07:36:14.758Z,10.50
2018-10-06T07:38:44.776Z,10.50
2018-10-06T07:41:14.858Z,10.60
2018-10-06T07:43:44.926Z,10.60
2018-10-06T07:46:15.208Z,10.70
2018-10-06T07:48:45.356Z,10.70
2018-10-06T07:51:15.562Z,10.80
2018-10-06T07:53:45.602Z,10.80
2018-10-06T07:56:15.814Z,10.90
2018-10-06T07:58:46.022Z,11.00
2018-10-06T08:01:16.048Z,11.10
2018-10-06T08:03:46.155Z,11.30
2018-10-06T08:06:16.300Z,11.40
2018-10-06T08:08:46.316Z,11.60
2018-10-06T08:11:16.420Z,11.90
2018-10-06T08:13:46.676Z,12.10
2018-10-06T08:16:16.848Z,12.30
2018-10-06T08:18:47.062Z,12.50
2018-10-06T08:21:17.692Z,12.70
2018-10-06T08:23:47.827Z,12.90
2018-10-06T08:26:18.032Z,13.10
2018-10-06T08:28:48.212Z,13.20
2018-10-06T08:31:19.379Z,13.40
2018-10-06T08:33:49.452Z,13.50
2018-10-06T08:36:19.462Z,13.60
2018-10-06T08:38:49.482Z,13.70
2018-10-06T08:41:19.777Z,13.70
2018-10-06T08:43:49.847Z,13.80
2018-10-06T08:46:20.088Z,13.80
2018-10-06T08:48:50.354Z,13.90
2018-10-06T08:51:20.428Z,14.00
2018-10-06T08:53:50.606Z,14.00
2018-10-06T08:56:20.762Z,14.10
2018-10-06T08:58:50.660Z,14.10
2018-10-06T09:01:21.026Z,14.10
2018-10-06T09:03:51.060Z,14.20
2018-10-06T09:06:21.330Z,14.20
2018-10-06T09:08:51.531Z,14.30
2018-10-06T09:11:21.665Z,14.40
2018-10-06T09:13:51.854Z,14.40
2018-10-06T09:16:21.830Z,14.50
2018-10-06T09:18:52.047Z,14.60
2018-10-06T09:21:22.713Z,14.60
2018-10-06T09:23:52.723Z,14.70
2018-10-06T09:26:22.865Z,14.70
2018-10-06T09:28:52.985Z,14.70
2018-10-06T09:31:23.054Z,14.70
2018-10-06T09:33:53.129Z,14.60
2018-10-06T09:36:23.203Z,14.60
2018-10-06T09:38:53.209Z,14.60
2018-10-06T09:41:23.313Z,14.60
2018-10-06T09:43:53.460Z,14.60
2018-10-06T09:46:23.505Z,14.60
2018-10-06T09:48:53.616Z,14.60
2018-10-06T09:51:23.817Z,14.60
2018-10-06T09:53:54.017Z,14.70
2018-10-06T09:56:24.073Z,14.70
2018-10-06T09:58:54.353Z,14.80
2018-10-06T10:01:29.643Z,14.90
2018-10-06T10:04:05.073Z,15.00
2018-10-06T10:06:35.141Z,15.10
2018-10-06T10:09:07.493Z,15.20
2018-10-06T10:11:38.918Z,15.30
2018-10-06T10:14:09.591Z,15.40
2018-10-06T10:16:39.712Z,15.40
2018-10-06T10:19:09.703Z,15.50
2018-10-06T10:21:39.834Z,15.50
2018-10-06T10:24:10.110Z,15.50
2018-10-06T10:26:40.271Z,15.60
2018-10-06T10:29:10.457Z,15.60
2018-10-06T10:31:40.525Z,15.60
2018-10-06T10:34:10.567Z,15.60
2018-10-06T10:36:40.599Z,15.60
2018-10-06T10:39:10.758Z,15.70
2018-10-06T10:41:40.675Z,15.70
2018-10-06T10:44:10.671Z,15.80
2018-10-06T10:46:40.749Z,15.80
2018-10-06T10:49:10.830Z,15.90
2018-10-06T10:51:40.847Z,15.90
2018-10-06T10:54:10.883Z,16.00
2018-10-06T10:56:40.989Z,16.10
2018-10-06T10:59:11.027Z,16.20
2018-10-06T11:01:41.128Z,16.40
2018-10-06T11:04:11.456Z,16.50
2018-10-06T11:06:41.543Z,16.60
2018-10-06T11:09:11.627Z,16.60
2018-10-06T11:11:41.810Z,16.70
2018-10-06T11:14:12.536Z,16.80
2018-10-06T11:16:42.660Z,16.80
2018-10-06T11:19:12.759Z,16.80
2018-10-06T11:21:42.747Z,16.80
2018-10-06T11:24:13.141Z,16.90
2018-10-06T11:26:43.266Z,17.00
2018-10-06T11:29:13.374Z,17.00
2018-10-06T11:31:43.424Z,17.10
2018-10-06T11:34:13.614Z,17.20
2018-10-06T11:36:43.661Z,17.20
2018-10-06T11:39:13.714Z,17.20
2018-10-06T11:41:43.782Z,17.30
2018-10-06T11:44:14.486Z,17.30
2018-10-06T11:46:44.506Z,17.40
2018-10-06T11:49:14.594Z,17.50
2018-10-06T11:51:44.718Z,17.50
2018-10-06T11:54:14.900Z,17.70
2018-10-06T11:56:44.960Z,17.80
2018-10-06T11:59:15.948Z,17.90
2018-10-06T12:01:46.070Z,18.00
2018-10-06T12:04:16.328Z,18.00
2018-10-06T12:06:46.427Z,18.00
2018-10-06T12:09:16.450Z,18.00
2018-10-06T12:11:46.694Z,18.00
2018-10-06T12:14:16.825Z,18.00
2018-10-06T12:16:46.882Z,18.00
2018-10-06T12:19:16.970Z,18.00
2018-10-06T12:21:47.104Z,18.10
2018-10-06T12:24:17.264Z,18.20
2018-10-06T12:26:47.399Z,18.20
2018-10-06T12:29:17.416Z,18.20
2018-10-06T12:31:47.522Z,18.30
2018-10-06T12:34:17.540Z,18.40
2018-10-06T12:36:47.624Z,18.50
2018-10-06T12:39:17.904Z,18.60
2018-10-06T12:41:47.999Z,18.70
2018-10-06T12:44:18.096Z,18.80
2018-10-06T12:46:48.229Z,18.80
2018-10-06T12:49:18.328Z,18.80
2018-10-06T12:51:48.566Z,18.90
2018-10-06T12:54:18.598Z,19.00
2018-10-06T12:56:48.593Z,19.10
2018-10-06T12:59:18.618Z,19.20
2018-10-06T13:01:48.685Z,19.20
2018-10-06T13:04:18.711Z,19.20
2018-10-06T13:06:48.798Z,19.30
2018-10-06T13:09:18.972Z,19.30
2018-10-06T13:11:49.068Z,19.40
2018-10-06T13:14:19.198Z,19.50
2018-10-06T13:16:49.275Z,19.60
2018-10-06T13:19:19.466Z,19.70
2018-10-06T13:21:49.550Z,19.70
2018-10-06T13:24:19.666Z,19.80
2018-10-06T13:26:49.911Z,19.80
2018-10-06T13:29:20.022Z,19.80
2018-10-06T13:31:50.113Z,19.90
2018-10-06T13:34:20.202Z,19.80
2018-10-06T13:36:50.304Z,19.80
2018-10-06T13:39:20.349Z,19.80
2018-10-06T13:41:50.605Z,19.80
2018-10-06T13:44:20.663Z,19.70
2018-10-06T13:46:50.688Z,19.80
2018-10-06T13:49:20.681Z,19.80
2018-10-06T13:51:50.830Z,19.70
2018-10-06T13:54:21.311Z,19.80
2018-10-06T13:56:51.413Z,19.70
2018-10-06T13:59:21.993Z,19.80
2018-10-06T14:01:52.040Z,19.70
2018-10-06T14:04:22.029Z,19.70
2018-10-06T14:06:52.059Z,19.70
2018-10-06T14:09:22.161Z,19.60
2018-10-06T14:11:52.335Z,19.60
2018-10-06T14:14:22.375Z,19.50
2018-10-06T14:16:52.532Z,19.40
2018-10-06T14:19:22.709Z,19.40
2018-10-06T14:21:52.715Z,19.40
2018-10-06T14:24:22.819Z,19.50
2018-10-06T14:26:53.000Z,19.60
2018-10-06T14:29:23.143Z,19.70
2018-10-06T14:31:53.412Z,19.70
2018-10-06T14:34:23.556Z,19.80
2018-10-06T14:36:53.733Z,19.80
2018-10-06T14:39:24.316Z,19.80
2018-10-06T14:41:54.573Z,19.70
2018-10-06T14:44:24.920Z,19.70
2018-10-06T14:46:54.819Z,19.70
2018-10-06T14:49:24.895Z,19.70
2018-10-06T14:51:55.203Z,19.70
2018-10-06T14:54:25.831Z,19.60
2018-10-06T14:56:55.910Z,19.60
2018-10-06T14:59:26.067Z,19.50
2018-10-06T15:01:56.133Z,19.40
2018-10-06T15:04:26.295Z,19.30
2018-10-06T15:06:56.375Z,19.20
2018-10-06T15:09:26.359Z,19.20
2018-10-06T15:11:56.571Z,19.20
2018-10-06T15:14:26.691Z,19.10
2018-10-06T15:16:56.911Z,19.10
2018-10-06T15:19:27.187Z,19.10
2018-10-06T15:21:57.195Z,19.10
2018-10-06T15:24:27.209Z,19.10
2018-10-06T15:26:57.196Z,19.10
2018-10-06T15:29:27.348Z,19.10
2018-10-06T15:31:57.483Z,19.00
2018-10-06T15:34:27.690Z,18.90
2018-10-06T15:36:57.795Z,18.80
2018-10-06T15:39:28.088Z,18.80
2018-10-06T15:41:58.220Z,18.60
2018-10-06T15:44:28.353Z,18.60
2018-10-06T15:46:58.391Z,18.50
2018-10-06T15:49:28.573Z,18.40
2018-10-06T15:51:58.697Z,18.30
2018-10-06T15:54:30.722Z,18.30
2018-10-06T15:57:03.765Z,18.20
2018-10-06T15:59:34.076Z,18.10
2018-10-06T16:02:04.081Z,18.10
2018-10-06T16:04:34.185Z,18.00
2018-10-06T16:07:04.283Z,17.90
2018-10-06T16:09:34.352Z,17.80
2018-10-06T16:12:04.478Z,17.70
2018-10-06T16:14:34.525Z,17.60
2018-10-06T16:17:04.692Z,17.50
2018-10-06T16:19:34.898Z,17.50
2018-10-06T16:22:05.087Z,17.40
2018-10-06T16:24:35.107Z,17.40
2018-10-06T16:27:05.307Z,17.40
2018-10-06T16:29:35.347Z,17.30
2018-10-06T16:32:05.609Z,17.30
2018-10-06T16:34:35.822Z,17.20
2018-10-06T16:37:06.115Z,17.20
2018-10-06T16:39:36.223Z,17.10
2018-10-06T16:42:06.324Z,17.10
2018-10-06T16:44:36.425Z,16.90
2018-10-06T16:47:06.657Z,16.80
2018-10-06T16:49:36.679Z,16.70
2018-10-06T16:52:06.853Z,16.70
2018-10-06T16:54:37.120Z,16.60
2018-10-06T16:57:07.200Z,16.50
2018-10-06T16:59:37.317Z,16.40
2018-10-06T17:02:07.753Z,16.40
2018-10-06T17:04:37.853Z,16.30
2018-10-06T17:07:07.946Z,16.30
2018-10-06T17:09:38.040Z,16.30
2018-10-06T17:12:08.365Z,16.20
2018-10-06T17:14:38.511Z,16.20
2018-10-06T17:17:08.570Z,16.10
2018-10-06T17:19:38.583Z,16.10
2018-10-06T17:22:08.715Z,16.10
2018-10-06T17:24:38.830Z,16.10
2018-10-06T17:27:09.098Z,16.10
2018-10-06T17:29:39.237Z,16.10
2018-10-06T17:32:09.593Z,16.10
2018-10-06T17:34:39.755Z,16.10
2018-10-06T17:37:09.935Z,16.10
2018-10-06T17:39:40.231Z,16.00
2018-10-06T17:42:10.273Z,16.00
2018-10-06T17:44:40.455Z,16.00
2018-10-06T17:47:10.671Z,16.00
2018-10-06T17:49:41.021Z,15.90
2018-10-06T17:52:11.323Z,15.90
2018-10-06T17:54:41.305Z,15.80
2018-10-06T17:57:11.391Z,15.80
2018-10-06T17:59:41.508Z,15.70
2018-10-06T18:02:11.746Z,15.70
2018-10-06T18:04:41.915Z,15.60
2018-10-06T18:07:11.931Z,15.60
2018-10-06T18:09:41.949Z,15.50
2018-10-06T18:12:12.063Z,15.50
2018-10-06T18:14:42.161Z,15.50
2018-10-06T18:17:12.206Z,15.50
2018-10-06T18:19:42.175Z,15.40
2018-10-06T18:22:12.324Z,15.40
2018-10-06T18:24:42.478Z,15.40
2018-10-06T18:27:12.624Z,15.40
2018-10-06T18:29:43.108Z,15.30
2018-10-06T18:32:13.303Z,15.30
2018-10-06T18:34:43.472Z,15.30
2018-10-06T18:37:13.851Z,15.30
2018-10-06T18:39:44.000Z,15.30
2018-10-06T18:42:14.151Z,15.30
2018-10-06T18:44:44.231Z,15.30
2018-10-06T18:47:14.296Z,15.30
2018-10-06T18:49:44.381Z,15.30
2018-10-06T18:52:14.601Z,15.20
2018-10-06T18:54:44.590Z,15.20
2018-10-06T18:57:14.633Z,15.20
2018-10-06T18:59:45.263Z,15.20
2018-10-06T19:02:15.860Z,15.20
2018-10-06T19:04:46.492Z,15.20
2018-10-06T19:07:17.326Z,15.10
2018-10-06T19:09:47.955Z,15.10
2018-10-06T19:12:18.638Z,15.10
2018-10-06T19:14:49.189Z,15.00
2018-10-06T19:17:19.679Z,15.00
2018-10-06T19:19:50.344Z,14.90
2018-10-06T19:22:21.076Z,14.90
2018-10-06T19:24:51.562Z,14.90
2018-10-06T19:27:22.018Z,14.80
2018-10-06T19:29:52.625Z,14.80
2018-10-06T19:32:23.206Z,14.80
2018-10-06T19:34:53.686Z,14.80
2018-10-06T19:37:24.467Z,14.70
2018-10-06T19:39:55.102Z,14.70
2018-10-06T19:42:25.748Z,14.70
2018-10-06T19:44:56.274Z,14.70
2018-10-06T19:47:27.011Z,14.70
2018-10-06T19:49:57.492Z,14.70
2018-10-06T19:52:27.933Z,14.70
2018-10-06T19:54:58.422Z,14.70
2018-10-06T19:57:28.956Z,14.70
2018-10-06T19:59:59.475Z,14.70
2018-10-06T20:02:30.024Z,14.70
2018-10-06T20:05:00.532Z,14.70
2018-10-06T20:07:31.024Z,14.70
2018-10-06T20:10:01.557Z,14.70
2018-10-06T20:12:32.265Z,14.70
2018-10-06T20:15:02.720Z,14.70
2018-10-06T20:17:33.316Z,14.70
2018-10-06T20:20:03.846Z,14.70
2018-10-06T20:22:34.562Z,14.60
2018-10-06T20:25:04.854Z,14.70
2018-10-06T20:27:35.014Z,14.60
2018-10-06T20:30:05.340Z,14.60
2018-10-06T20:32:35.469Z,14.60
2018-10-06T20:35:05.550Z,14.60
2018-10-06T20:37:35.978Z,14.60
2018-10-06T20:40:06.265Z,14.60
2018-10-06T20:42:36.464Z,14.60
2018-10-06T20:45:06.667Z,14.60
2018-10-06T20:47:36.968Z,14.60
2018-10-06T20:50:07.129Z,14.60
2018-10-06T20:52:37.127Z,14.60
2018-10-06T20:55:07.318Z,14.60
2018-10-06T20:57:37.468Z,14.60
2018-10-06T21:00:08.772Z,14.60
2018-10-06T21:02:38.907Z,14.60
2018-10-06T21:05:09.122Z,14.50
2018-10-06T21:07:39.148Z,14.50
2018-10-06T21:10:09.312Z,14.40
2018-10-06T21:12:39.454Z,14.40
2018-10-06T21:15:09.550Z,14.40
2018-10-06T21:17:39.731Z,14.40
2018-10-06T21:20:09.786Z,14.40
2018-10-06T21:22:39.930Z,14.40
2018-10-06T21:25:10.130Z,14.40
2018-10-06T21:27:40.210Z,14.40
2018-10-06T21:30:10.372Z,14.40
2018-10-06T21:32:40.627Z,14.30
2018-10-06T21:35:10.685Z,14.30
2018-10-06T21:37:40.820Z,14.30
2018-10-06T21:40:10.915Z,14.30
2018-10-06T21:42:40.977Z,14.20
2018-10-06T21:45:11.402Z,14.20
2018-10-06T21:47:41.630Z,14.10
2018-10-06T21:50:11.648Z,14.10
2018-10-06T21:52:41.786Z,14.00
2018-10-06T21:55:11.792Z,14.00
2018-10-06T21:57:41.942Z,14.00
2018-10-06T22:00:12.118Z,13.90
2018-10-06T22:02:42.137Z,13.90
2018-10-06T22:05:12.362Z,13.80
2018-10-06T22:07:42.438Z,13.80
2018-10-06T22:10:12.746Z,13.80
2018-10-06T22:12:42.941Z,13.70
2018-10-06T22:15:13.235Z,13.70
2018-10-06T22:17:43.250Z,13.60
2018-10-06T22:20:13.502Z,13.60
2018-10-06T22:22:43.483Z,13.60
2018-10-06T22:25:13.540Z,13.60
2018-10-06T22:27:43.590Z,13.60
2018-10-06T22:30:13.742Z,13.50
2018-10-06T22:32:43.811Z,13.50
2018-10-06T22:35:14.021Z,13.50
2018-10-06T22:37:44.144Z,13.50
2018-10-06T22:40:14.232Z,13.50
2018-10-06T22:42:44.313Z,13.50
2018-10-06T22:45:14.468Z,13.50
2018-10-06T22:47:44.528Z,13.50
2018-10-06T22:50:14.593Z,13.50
2018-10-06T22:52:44.761Z,13.50
2018-10-06T22:55:14.895Z,13.50
2018-10-06T22:57:44.969Z,13.40
2018-10-06T23:00:15.128Z,13.40
2018-10-06T23:02:45.220Z,13.40
2018-10-06T23:05:15.227Z,13.40
2018-10-06T23:07:45.245Z,13.40
2018-10-06T23:10:15.299Z,13.40
2018-10-06T23:12:45.454Z,13.30
2018-10-06T23:15:15.491Z,13.30
2018-10-06T23:17:45.549Z,13.30
2018-10-06T23:20:15.737Z,13.30
2018-10-06T23:22:45.792Z,13.30
2018-10-06T23:25:15.876Z,13.30
2018-10-06T23:27:45.949Z,13.30
2018-10-06T23:30:16.137Z,13.30
2018-10-06T23:32:46.219Z,13.30
2018-10-06T23:35:16.325Z,13.30
2018-10-06T23:37:46.587Z,13.30
2018-10-06T23:40:16.857Z,13.30
2018-10-06T23:42:46.943Z,13.30
2018-10-06T23:45:17.151Z,13.30
2018-10-06T23:47:47.323Z,13.30
2018-10-06T23:50:17.370Z,13.30
2018-10-06T23:52:47.393Z,13.30
2018-10-06T23:55:17.562Z,13.30
2018-10-06T23:57:47.694Z,13.30
